Time;durP1;ratioP1;P1;durP2;ratioP2;P2;SDS_P1;SDS_P2;PMS_P1;PMS_P2;Temp;Humidity;BMP_temperature;BMP_pressure;BME280_temperature;BME280_humidity;BME280_pressure;Samples;Min_cycle;Max_cycle;Signal;HPM_P1;HPM_P2
2022/08/06 00:00:12;;;;;;;;;;;16.50;1.40;;;17.78;100.00;95771.42;658227;216;25395;-70
2022/08/06 00:02:53;;;;;;;;;;;16.50;1.40;;;17.72;100.00;95775.91;654740;216;25309;-71
2022/08/06 00:05:35;;;;;;;;;;;16.40;1.40;;;17.71;100.00;95782.59;653225;216;24950;-71
2022/08/06 00:08:17;;;;;;;;;;;16.40;1.40;;;17.71;100.00;95786.96;653016;216;24951;-70
2022/08/06 00:11:00;;;;;;;;;;;16.50;1.40;;;17.75;100.00;95802.14;654419;216;25194;-70
2022/08/06 00:13:44;;;;;;;;;;;16.50;1.40;;;17.76;100.00;95810.45;651883;216;24967;-70
2022/08/06 00:16:26;;;;;;;;;;;16.50;1.40;;;17.74;100.00;95806.94;644288;216;24962;-70
2022/08/06 00:19:10;;;;;;;;;;;16.50;1.40;;;17.70;100.00;95794.03;652860;216;25060;-70
2022/08/06 00:21:51;;;;;;;;;;;16.40;1.40;;;17.66;100.00;95801.01;654263;212;24885;-70
2022/08/06 00:24:33;;;;;;;;;;;16.40;1.40;;;17.64;100.00;95794.78;653433;212;25008;-70
2022/08/06 00:27:17;;;;;;;;;;;16.40;1.40;;;17.61;100.00;95795.52;656176;216;24969;-70
2022/08/06 00:29:58;;;;;;;;;;;16.40;1.40;;;17.58;100.00;95787.27;651286;212;24890;-71
2022/08/06 00:32:40;;;;;;;;;;;16.30;1.40;;;17.53;100.00;95789.02;657193;216;24955;-70
2022/08/06 00:35:51;;;;;;;1.40;0.70;;;16.20;1.40;;;17.49;100.00;95783.31;647359;216;31476;-70
2022/08/06 00:38:33;;;;;;;1.05;0.70;;;16.20;1.40;;;17.45;100.00;95784.64;649011;216;31490;-70
2022/08/06 00:41:15;;;;;;;0.90;0.80;;;16.10;1.40;;;17.38;100.00;95790.73;651474;216;31547;-69
2022/08/06 00:43:56;;;;;;;0.90;0.65;;;16.10;1.40;;;17.36;100.00;95785.78;649573;212;31533;-70
2022/08/06 00:49:12;;;;;;;0.80;0.57;;;16.00;1.40;;;17.22;100.00;95783.33;646526;216;31507;-71
2022/08/06 00:51:56;;;;;;;0.40;0.30;;;15.90;1.40;;;17.09;100.00;95794.42;653381;216;31495;-69
2022/08/06 00:54:37;;;;;;;0.90;0.70;;;15.80;1.40;;;17.05;100.00;95805.38;646934;212;31467;-70
2022/08/06 00:57:22;;;;;;;1.12;0.30;;;15.80;1.40;;;17.06;100.00;95793.52;647043;216;31495;-70
2022/08/06 01:02:38;;;;;;;;;;;15.80;1.40;;;17.05;100.00;95801.27;650395;216;24799;-69
2022/08/06 01:05:19;;;;;;;;;;;15.80;1.40;;;17.05;100.00;95792.84;649188;215;24800;-69
2022/08/06 01:08:01;;;;;;;;;;;15.90;1.40;;;17.06;100.00;95775.77;655263;216;25316;-70
2022/08/06 01:10:43;;;;;;;;;;;15.90;1.40;;;17.07;100.00;95773.76;658200;216;25822;-70
2022/08/06 01:13:24;;;;;;;;;;;15.90;1.40;;;17.09;100.00;95770.45;657136;216;24724;-72
2022/08/06 01:16:22;;;;;;;;;;;15.90;1.40;;;17.10;100.00;95766.52;642735;212;25155;-71
2022/08/06 01:19:19;;;;;;;;;;;15.90;1.40;;;17.10;100.00;95768.98;651937;212;24711;-70
2022/08/06 01:22:21;;;;;;;;;;;15.90;1.40;;;17.07;100.00;95775.66;654583;216;24806;-71
2022/08/06 01:25:06;;;;;;;;;;;16.00;1.40;;;17.14;100.00;95769.92;659026;216;24830;-71
2022/08/06 01:28:02;;;;;;;;;;;16.00;1.40;;;17.22;100.00;95770.39;654567;216;24834;-70
2022/08/06 01:30:46;;;;;;;;;;;16.00;1.40;;;17.26;100.00;95765.13;652376;212;24826;-70
2022/08/06 01:35:52;;;;;;;0.60;0.60;;;16.10;1.40;;;17.28;100.00;95765.06;647913;212;31588;-70
2022/08/06 01:38:35;;;;;;;0.75;0.52;;;16.00;1.40;;;17.21;100.00;95773.66;647485;216;31495;-70
2022/08/06 01:41:38;;;;;;;1.50;1.10;;;16.00;1.40;;;17.21;100.00;95781.52;619668;226;31992;-71
2022/08/06 01:43:59;;;;;;;0.40;0.30;;;16.00;1.40;;;17.18;100.00;95783.12;647399;212;31484;-70
2022/08/06 01:46:41;;;;;;;0.70;0.50;;;16.00;1.40;;;17.19;100.00;95779.43;643355;212;31489;-70
2022/08/06 01:49:23;;;;;;;0.60;0.50;;;16.00;1.40;;;17.19;100.00;95780.30;626726;226;31870;-70
2022/08/06 01:52:05;;;;;;;0.75;0.70;;;16.00;1.40;;;17.14;100.00;95775.72;646343;216;31763;-70
2022/08/06 01:54:47;;;;;;;0.80;0.68;;;16.00;1.40;;;17.17;100.00;95777.52;647569;212;31448;-70
2022/08/06 01:57:28;;;;;;;0.50;0.50;;;16.00;1.40;;;17.19;100.00;95784.28;646800;216;31493;-69
2022/08/06 02:00:12;;;;;;;0.90;0.77;;;16.00;1.40;;;17.18;100.00;95785.34;647359;216;31511;-71
2022/08/06 02:02:53;;;;;;;0.68;0.50;;;16.00;1.40;;;17.21;100.00;95786.03;642533;212;32069;-69
2022/08/06 02:05:35;;;;;;;3.45;0.85;;;16.00;1.40;;;17.25;100.00;95788.21;646658;216;31481;-69
2022/08/06 02:08:16;;;;;;;;;;;16.10;1.40;;;17.26;100.00;95786.38;659595;212;24900;-70
2022/08/06 02:10:58;;;;;;;;;;;16.10;1.40;;;17.27;100.00;95783.14;651939;216;24912;-69
2022/08/06 02:13:39;;;;;;;;;;;16.10;1.40;;;17.30;100.00;95785.75;646928;217;24975;-70
2022/08/06 02:16:21;;;;;;;;;;;16.00;1.40;;;17.28;100.00;95782.94;640251;216;24891;-70
2022/08/06 02:19:02;;;;;;;;;;;16.00;1.40;;;17.31;100.00;95783.87;657877;216;24862;-70
2022/08/06 02:21:43;;;;;;;;;;;16.10;1.40;;;17.34;100.00;95784.48;649137;215;24812;-70
2022/08/06 02:24:28;;;;;;;;;;;16.10;1.40;;;17.28;100.00;95783.19;658325;216;24920;-70
2022/08/06 02:27:10;;;;;;;;;;;16.00;1.40;;;17.29;100.00;95782.95;653219;216;24912;-70
2022/08/06 02:29:50;;;;;;;;;;;16.10;1.40;;;17.31;100.00;95788.84;656662;216;25247;-69
2022/08/06 02:32:32;;;;;;;;;;;16.10;1.40;;;17.33;100.00;95785.33;648051;216;24917;-72
2022/08/06 02:35:54;;;;;;;0.90;0.90;;;16.10;1.40;;;17.27;100.00;95782.56;651706;216;31639;-70
2022/08/06 02:38:37;;;;;;;1.40;0.70;;;16.10;1.40;;;17.32;100.00;95781.86;645516;216;31511;-72
2022/08/06 02:41:34;;;;;;;0.77;0.60;;;16.10;1.40;;;17.35;100.00;95779.47;651007;216;31470;-70
2022/08/06 02:44:34;;;;;;;0.40;0.30;;;16.10;1.40;;;17.36;100.00;95777.80;649643;216;31470;-70
2022/08/06 02:47:22;;;;;;;1.50;0.70;;;16.10;1.40;;;17.37;100.00;95773.50;646515;216;31604;-71
2022/08/06 02:50:04;;;;;;;1.90;0.90;;;16.10;1.40;;;17.45;100.00;95774.06;651285;212;31669;-71
2022/08/06 02:53:02;;;;;;;1.10;0.70;;;16.10;1.40;;;17.47;100.00;95770.02;649715;216;31524;-70
2022/08/06 02:55:43;;;;;;;0.73;0.73;;;16.20;1.40;;;17.54;100.00;95765.88;649142;216;31551;-71
2022/08/06 02:58:26;;;;;;;;;;;16.30;1.40;;;17.57;100.00;95761.76;656541;216;24816;-71
2022/08/06 03:01:09;;;;;;;;;;;16.30;1.40;;;17.63;100.00;95763.05;654771;212;25244;-70
2022/08/06 03:03:53;;;;;;;;;;;16.40;1.40;;;17.63;100.00;95763.54;652906;216;24740;-71
2022/08/06 03:06:34;;;;;;;;;;;16.40;1.40;;;17.73;100.00;95761.47;647136;220;24817;-71
2022/08/06 03:09:15;;;;;;;;;;;16.40;1.40;;;17.77;100.00;95764.14;658953;212;24814;-71
2022/08/06 03:11:57;;;;;;;;;;;16.40;1.40;;;17.79;100.00;95775.68;653119;216;24809;-70
2022/08/06 03:14:38;;;;;;;;;;;16.40;1.40;;;17.78;100.00;95777.27;655422;216;24895;-71
2022/08/06 03:17:19;;;;;;;;;;;16.50;1.40;;;17.80;100.00;95778.16;654098;216;25222;-70
2022/08/06 03:20:01;;;;;;;;;;;16.50;1.40;;;17.82;100.00;95778.34;655034;216;24847;-71
2022/08/06 03:22:42;;;;;;;;;;;16.60;1.40;;;17.84;100.00;95780.62;651205;212;24850;-70
2022/08/06 03:25:23;;;;;;;;;;;16.60;1.40;;;17.90;100.00;95782.47;655190;216;24916;-70
2022/08/06 03:28:05;;;;;;;;;;;16.60;1.40;;;17.92;100.00;95786.44;657245;216;24796;-71
2022/08/06 03:30:46;;;;;;;;;;;16.60;1.40;;;17.90;100.00;95792.34;651984;216;24800;-70
2022/08/06 03:35:50;;;;;;;;;;;16.60;1.40;;;17.88;100.00;95798.42;655990;216;24946;-70
2022/08/06 03:38:38;;;;;;;;;;;16.60;1.40;;;17.81;100.00;95795.90;657324;216;24953;-69
2022/08/06 03:41:19;;;;;;;;;;;16.50;1.40;;;17.76;100.00;95796.47;653976;216;25757;-71
2022/08/06 03:44:01;;;;;;;;;;;16.40;1.40;;;17.71;100.00;95797.98;654556;212;24872;-71
2022/08/06 03:46:45;;;;;;;;;;;16.40;1.40;;;17.69;100.00;95799.52;649651;215;24935;-70
2022/08/06 03:49:27;;;;;;;;;;;16.40;1.40;;;17.68;100.00;95802.40;653947;212;24873;-71
2022/08/06 03:52:10;;;;;;;;;;;16.40;1.40;;;17.61;100.00;95801.48;648818;219;24860;-70
2022/08/06 03:54:51;;;;;;;;;;;16.40;1.40;;;17.60;100.00;95804.07;655557;212;25337;-70
2022/08/06 03:57:33;;;;;;;;;;;16.40;1.40;;;17.60;100.00;95803.95;651742;212;24944;-70
2022/08/06 04:00:14;;;;;;;;;;;16.40;1.40;;;17.58;100.00;95807.05;656532;212;24929;-71
2022/08/06 04:02:56;;;;;;;;;;;16.30;1.40;;;17.45;100.00;95807.63;631856;222;24931;-71
2022/08/06 04:05:37;;;;;;;;;;;16.30;1.40;;;17.50;100.00;95808.90;656522;212;24968;-71
2022/08/06 04:08:18;;;;;;;;;;;16.30;1.40;;;17.52;100.00;95815.50;652855;212;24955;-70
2022/08/06 04:11:02;;;;;;;;;;;16.30;1.40;;;17.42;100.00;95819.73;658216;216;24989;-71
2022/08/06 04:13:43;;;;;;;;;;;16.20;1.40;;;17.41;100.00;95825.14;652374;216;24935;-71
2022/08/06 04:16:25;;;;;;;;;;;16.30;1.40;;;17.49;100.00;95829.05;642022;220;25623;-70
2022/08/06 04:19:06;;;;;;;;;;;16.30;1.40;;;17.46;100.00;95832.44;651293;216;24929;-70
2022/08/06 04:21:47;;;;;;;;;;;16.30;1.40;;;17.50;100.00;95841.09;653840;216;24933;-71
2022/08/06 04:24:29;;;;;;;;;;;16.20;1.40;;;17.42;100.00;95841.89;650023;216;25080;-71
2022/08/06 04:27:10;;;;;;;;;;;16.30;1.40;;;17.39;100.00;95840.37;657051;216;24852;-71
2022/08/06 04:29:54;;;;;;;;;;;16.30;1.40;;;17.46;100.00;95844.94;649153;215;24862;-70
2022/08/06 04:32:36;;;;;;;;;;;16.20;1.40;;;17.43;100.00;95842.80;646117;214;24858;-71
2022/08/06 04:35:51;;;;;;;4.70;2.67;;;16.20;1.40;;;17.59;100.00;95846.75;647506;216;31584;-71
2022/08/06 04:38:33;;;;;;;3.78;3.10;;;16.30;1.40;;;17.58;100.00;95849.74;625987;226;31961;-71
2022/08/06 04:41:15;;;;;;;4.25;3.85;;;16.30;1.40;;;17.50;100.00;95851.39;653731;212;32070;-71
2022/08/06 04:44:00;;;;;;;1.75;1.65;;;16.20;1.40;;;17.35;100.00;95854.96;652059;216;42320;-71
2022/08/06 04:46:43;;;;;;;2.55;1.98;;;16.10;1.40;;;17.31;100.00;95862.27;648045;216;31551;-70
2022/08/06 04:51:57;;;;;;;2.70;1.30;;;16.10;1.40;;;17.47;100.00;95864.20;618469;222;31938;-70
2022/08/06 04:54:39;;;;;;;3.30;1.40;;;16.10;1.40;;;17.41;100.00;95872.19;648820;216;31557;-71
2022/08/06 04:57:21;;;;;;;;;;;16.10;1.40;;;17.33;100.00;95877.55;650190;212;24807;-72
2022/08/06 05:00:02;;;;;;;;;;;16.00;1.40;;;17.29;100.00;95878.83;657227;216;24844;-70
2022/08/06 05:02:46;;;;;;;;;;;15.90;1.40;;;17.25;100.00;95886.42;648572;219;24812;-71
2022/08/06 05:05:28;;;;;;;;;;;15.90;1.40;;;17.12;100.00;95889.49;653386;216;24791;-70
2022/08/06 05:08:09;;;;;;;;;;;15.90;1.40;;;17.07;100.00;95892.66;653088;212;25068;-71
2022/08/06 05:10:55;;;;;;;;;;;15.90;1.40;;;17.10;100.00;95900.99;652926;216;24837;-71
2022/08/06 05:13:36;;;;;;;;;;;15.70;1.40;;;17.06;100.00;95900.33;657233;212;24898;-70
2022/08/06 05:16:17;;;;;;;;;;;15.70;1.40;;;16.99;100.00;95906.06;644362;212;24782;-70
2022/08/06 05:18:59;;;;;;;;;;;15.60;1.40;;;17.00;100.00;95906.69;654362;216;25242;-70
2022/08/06 05:21:41;;;;;;;;;;;15.60;1.40;;;16.99;100.00;95913.20;653770;216;24818;-71
2022/08/06 05:24:22;;;;;;;;;;;15.60;1.40;;;17.00;100.00;95911.38;656665;212;24799;-71
2022/08/06 05:27:04;;;;;;;;;;;15.70;1.40;;;16.92;100.00;95914.18;655180;216;24825;-70
2022/08/06 05:29:45;;;;;;;;;;;15.70;1.40;;;16.87;100.00;95916.33;657007;212;25599;-70
2022/08/06 05:32:26;;;;;;;;;;;15.70;1.40;;;16.99;100.00;95915.47;660826;216;24740;-70
2022/08/06 05:35:51;;;;;;;;;;;15.70;1.40;;;17.04;100.00;95920.34;650081;215;24857;-70
2022/08/06 05:38:33;;;;;;;;;;;15.80;1.40;;;16.99;100.00;95921.14;655494;212;24972;-69
2022/08/06 05:41:14;;;;;;;;;;;15.70;1.40;;;16.97;100.00;95917.83;657180;216;24959;-69
2022/08/06 05:43:56;;;;;;;;;;;15.70;1.40;;;16.81;100.00;95918.14;651920;212;25863;-70
2022/08/06 05:46:39;;;;;;;;;;;15.70;1.40;;;16.69;100.00;95919.61;653875;216;24937;-70
2022/08/06 05:49:22;;;;;;;;;;;15.60;1.40;;;16.90;100.00;95927.84;652939;216;24932;-70
2022/08/06 05:52:04;;;;;;;;;;;15.70;1.40;;;16.94;100.00;95927.59;653588;216;25414;-70
2022/08/06 05:54:53;;;;;;;;;;;15.70;1.40;;;16.86;100.00;95933.20;656334;216;24949;-73
2022/08/06 05:57:41;;;;;;;;;;;15.50;1.40;;;16.72;100.00;95937.27;653923;216;25159;-70
2022/08/06 06:00:22;;;;;;;;;;;15.50;1.40;;;16.59;100.00;95942.00;653088;216;24945;-70
2022/08/06 06:03:07;;;;;;;;;;;15.30;1.40;;;16.41;100.00;95947.02;653946;212;24866;-70
2022/08/06 06:05:48;;;;;;;;;;;15.20;1.40;;;16.40;100.00;95951.22;657561;216;24940;-71
2022/08/06 06:08:29;;;;;;;;;;;15.20;1.40;;;16.39;100.00;95955.80;653373;216;24878;-70
2022/08/06 06:11:11;;;;;;;;;;;15.20;1.40;;;16.28;100.00;95965.73;658834;216;24865;-70
2022/08/06 06:13:52;;;;;;;;;;;15.10;1.40;;;16.28;100.00;95970.77;650664;216;25051;-70
2022/08/06 06:16:37;;;;;;;;;;;14.90;1.40;;;15.90;100.00;95969.56;640688;216;25070;-70
2022/08/06 06:19:27;;;;;;;;;;;14.70;1.40;;;15.86;100.00;95975.22;648987;220;25278;-70
2022/08/06 06:22:13;;;;;;;;;;;14.60;1.40;;;15.90;100.00;95977.93;657537;216;25305;-69
2022/08/06 06:25:11;;;;;;;;;;;14.50;1.40;;;15.79;100.00;95985.09;653840;216;24893;-69
2022/08/06 06:27:53;;;;;;;;;;;14.40;1.40;;;15.72;100.00;95995.20;652528;216;24939;-70
2022/08/06 06:30:39;;;;;;;;;;;14.40;1.40;;;15.56;100.00;95997.20;652480;212;24909;-70
2022/08/06 06:35:56;;;;;;;2.00;1.80;;;14.30;1.40;;;15.46;100.00;95997.96;648443;212;42174;-70
2022/08/06 06:41:22;;;;;;;2.03;1.83;;;14.30;1.40;;;15.64;100.00;96002.67;645984;212;32199;-70
2022/08/06 06:44:21;;;;;;;1.35;1.15;;;14.30;1.40;;;15.61;100.00;96008.32;649925;216;32940;-70
2022/08/06 06:47:08;;;;;;;9.27;2.00;;;14.30;1.40;;;15.53;100.00;96009.50;644487;216;31571;-69
2022/08/06 06:49:53;;;;;;;2.10;1.52;;;14.30;1.40;;;15.57;100.00;96004.48;646179;216;31525;-71
2022/08/06 06:52:35;;;;;;;2.97;2.50;;;14.30;1.40;;;15.56;100.00;96006.45;648289;216;31596;-70
2022/08/06 06:55:32;;;;;;;2.70;1.90;;;14.40;1.40;;;15.59;100.00;96003.10;645980;216;31491;-70
2022/08/06 06:58:19;;;;;;;1.35;1.20;;;14.50;1.40;;;15.59;100.00;96004.02;648352;212;33126;-71
2022/08/06 07:01:00;;;;;;;1.67;1.30;;;14.40;1.40;;;15.58;100.00;95997.80;644541;212;31502;-70
2022/08/06 07:03:44;;;;;;;2.08;1.40;;;14.50;1.40;;;15.80;100.00;96003.58;648070;216;31954;-72
2022/08/06 07:06:27;;;;;;;2.70;2.08;;;14.60;1.40;;;15.62;100.00;96003.29;650335;216;31520;-70
2022/08/06 07:09:09;;;;;;;2.00;1.35;;;14.60;1.40;;;15.63;100.00;96003.27;645481;216;31544;-70
2022/08/06 07:11:50;;;;;;;1.92;1.52;;;14.60;1.40;;;15.83;100.00;96010.77;617447;226;32008;-70
2022/08/06 07:14:32;;;;;;;2.90;1.87;;;14.80;1.40;;;15.98;100.00;96014.47;651403;212;31595;-70
2022/08/06 07:17:14;;;;;;;2.80;2.17;;;14.80;1.40;;;16.01;100.00;96017.91;643180;216;42232;-70
2022/08/06 07:19:55;;;;;;;;;;;15.00;1.40;;;16.04;100.00;96015.68;653403;212;24796;-70
2022/08/06 07:22:39;;;;;;;;;;;15.00;1.40;;;16.02;100.00;96018.36;654581;216;24708;-68
2022/08/06 07:25:21;;;;;;;;;;;14.90;1.40;;;16.03;100.00;96020.67;655339;216;24825;-69
2022/08/06 07:28:02;;;;;;;;;;;14.90;1.40;;;15.95;100.00;96019.29;652938;212;24982;-69
2022/08/06 07:30:44;;;;;;;;;;;14.90;1.40;;;15.79;100.00;96023.64;653809;212;24811;-69
2022/08/06 07:35:51;;;;;;;2.60;2.35;;;14.80;1.40;;;15.69;100.00;96032.59;647474;212;31650;-69
2022/08/06 07:38:36;;;;;;;4.97;2.75;;;14.70;1.40;;;15.96;100.00;96031.34;646657;212;31702;-69
2022/08/06 07:41:18;;;;;;;3.40;2.28;;;14.80;1.40;;;15.85;100.00;96038.48;646959;216;31599;-69
2022/08/06 07:43:59;;;;;;;;;;;14.70;1.40;;;15.83;100.00;96031.47;651104;216;24804;-68
2022/08/06 07:46:41;;;;;;;;;;;14.70;1.40;;;15.82;100.00;96028.91;653369;216;25489;-69
2022/08/06 07:49:22;;;;;;;;;;;14.80;1.40;;;15.83;100.00;96035.00;651405;212;24801;-70
2022/08/06 07:52:04;;;;;;;;;;;14.90;1.40;;;15.98;100.00;96035.02;655233;212;25267;-69
2022/08/06 07:54:46;;;;;;;;;;;14.90;1.40;;;16.14;100.00;96033.94;652026;216;25201;-70
2022/08/06 07:57:27;;;;;;;;;;;15.00;1.40;;;16.19;100.00;96039.92;653251;216;24834;-69
2022/08/06 08:00:10;;;;;;;;;;;15.10;1.40;;;16.12;100.00;96047.52;651409;216;24795;-70
2022/08/06 08:08:25;;;;;;;;;;;15.30;1.40;;;16.44;100.00;96049.09;653199;212;24714;-69
2022/08/06 08:11:07;;;;;;;;;;;15.30;1.40;;;16.35;100.00;96045.40;649356;219;24795;-69
2022/08/06 08:13:48;;;;;;;;;;;15.20;1.40;;;16.24;100.00;96052.87;654344;216;24811;-68
2022/08/06 08:16:30;;;;;;;;;;;15.10;1.40;;;16.15;100.00;96052.50;641571;216;24822;-70
2022/08/06 08:19:23;;;;;;;;;;;15.10;1.40;;;16.25;100.00;96052.52;650677;216;25201;-69
2022/08/06 08:22:06;;;;;;;;;;;15.20;1.40;;;16.53;100.00;96049.59;654283;216;24793;-69
2022/08/06 08:24:50;;;;;;;;;;;15.30;1.40;;;16.48;100.00;96050.20;654911;216;24904;-69
2022/08/06 08:27:31;;;;;;;;;;;15.30;1.40;;;16.36;100.00;96054.50;653349;212;24764;-69
2022/08/06 08:30:13;;;;;;;;;;;15.30;1.40;;;16.69;100.00;96056.59;653085;216;24823;-69
2022/08/06 08:32:54;;;;;;;;;;;15.50;1.40;;;16.49;100.00;96059.05;652905;216;25337;-69
2022/08/06 08:35:51;;;;;;;7.40;4.37;;;15.40;1.40;;;16.47;100.00;96062.86;645584;216;32291;-69
2022/08/06 08:38:32;;;;;;;5.28;3.67;;;15.40;1.40;;;16.49;100.00;96065.73;646284;216;31560;-70
2022/08/06 08:41:14;;;;;;;5.32;3.70;;;15.40;1.40;;;16.57;100.00;96074.69;646895;212;31589;-70
2022/08/06 08:44:00;;;;;;;;;;;15.40;1.40;;;16.64;100.00;96072.17;653362;216;24830;-68
2022/08/06 08:46:42;;;;;;;;;;;15.40;1.40;;;16.47;100.00;96068.37;652980;216;25656;-69
2022/08/06 08:49:32;;;;;;;;;;;15.30;1.40;;;16.59;100.00;96074.82;653105;216;25359;-70
2022/08/06 08:52:13;;;;;;;;;;;15.40;1.40;;;16.96;100.00;96077.91;649979;215;24714;-70
2022/08/06 08:54:55;;;;;;;;;;;15.60;1.40;;;17.22;100.00;96082.98;652477;216;24801;-71
2022/08/06 08:57:36;;;;;;;;;;;15.80;1.40;;;17.29;100.00;96085.59;651494;216;24815;-69
2022/08/06 09:00:18;;;;;;;;;;;15.80;1.40;;;17.31;100.00;96083.89;648877;215;24824;-69
2022/08/06 09:03:03;;;;;;;;;;;15.70;1.40;;;17.30;100.00;96087.89;654450;216;25311;-69
2022/08/06 09:05:45;;;;;;;;;;;15.70;1.40;;;16.91;100.00;96092.53;651903;216;25030;-71
2022/08/06 09:08:30;;;;;;;;;;;15.50;1.40;;;16.99;100.00;96098.22;656636;216;24813;-72
2022/08/06 09:11:15;;;;;;;;;;;15.40;1.40;;;16.98;100.00;96094.66;658204;212;24815;-70
2022/08/06 09:13:57;;;;;;;;;;;15.50;1.40;;;16.93;100.00;96100.91;655446;212;24818;-71
2022/08/06 09:16:41;;;;;;;;;;;15.50;1.40;;;16.94;100.00;96104.00;652037;218;25808;-71
2022/08/06 09:19:23;;;;;;;;;;;15.50;1.40;;;16.85;100.00;96102.05;653936;216;24815;-71
2022/08/06 09:22:05;;;;;;;;;;;15.50;1.40;;;16.97;100.00;96101.50;651838;216;24909;-70
2022/08/06 09:24:47;;;;;;;;;;;15.60;1.40;;;17.09;100.00;96104.51;657654;216;24818;-71
2022/08/06 09:27:33;;;;;;;;;;;15.60;1.40;;;17.02;100.00;96106.36;631678;220;24880;-71
2022/08/06 09:30:18;;;;;;;;;;;15.70;1.40;;;16.87;100.00;96107.63;627115;222;24958;-70
2022/08/06 09:32:59;;;;;;;;;;;15.60;1.40;;;17.06;100.00;96107.95;651373;216;24912;-71
2022/08/06 09:38:29;;;;;;;4.53;4.12;;;15.80;1.40;;;17.48;100.00;96104.75;645633;212;31650;-72
2022/08/06 09:41:10;;;;;;;7.82;4.43;;;15.90;1.40;;;17.42;100.00;96104.78;621972;222;31914;-72
2022/08/06 09:43:55;;;;;;;;;;;16.10;1.40;;;17.41;100.00;96110.41;623870;224;24910;-71
2022/08/06 09:46:40;;;;;;;;;;;16.00;1.40;;;17.74;100.00;96105.96;653912;212;24735;-71
2022/08/06 09:49:23;;;;;;;;;;;16.20;1.40;;;17.69;100.00;96106.35;651479;216;24813;-70
2022/08/06 09:52:14;;;;;;;;;;;16.30;1.40;;;17.75;100.00;96103.48;653154;212;24823;-70
2022/08/06 09:54:55;;;;;;;;;;;16.30;1.40;;;17.81;100.00;96106.36;651758;216;24716;-69
2022/08/06 09:57:43;;;;;;;;;;;16.50;1.40;;;17.93;100.00;96106.31;653882;216;24795;-70
2022/08/06 10:00:26;;;;;;;;;;;16.60;1.40;;;18.08;100.00;96107.98;649717;212;24708;-70
2022/08/06 10:03:07;;;;;;;;;;;16.70;1.40;;;18.25;100.00;96110.83;658198;212;25100;-69
2022/08/06 10:06:06;;;;;;;;;;;16.80;1.40;;;18.29;100.00;96112.59;660312;212;24886;-69
2022/08/06 10:08:47;;;;;;;;;;;16.90;1.40;;;18.63;100.00;96114.86;656513;216;24819;-69
2022/08/06 10:11:33;;;;;;;;;;;17.00;1.40;;;19.11;100.00;96113.19;654668;212;24871;-70
2022/08/06 10:14:23;;;;;;;;;;;17.40;1.40;;;19.15;100.00;96111.40;653403;216;25538;-69
2022/08/06 10:17:09;;;;;;;;;;;17.50;1.40;;;19.06;100.00;96114.63;651852;216;24826;-69
2022/08/06 10:20:07;;;;;;;;;;;17.50;1.40;;;19.01;100.00;96118.16;657022;216;24717;-70
2022/08/06 10:22:51;;;;;;;;;;;17.20;1.40;;;18.85;100.00;96119.66;652961;212;24711;-69
2022/08/06 10:25:32;;;;;;;;;;;17.00;1.40;;;18.62;100.00;96121.63;621846;229;24877;-70
2022/08/06 10:28:14;;;;;;;;;;;16.90;1.40;;;18.22;100.00;96121.42;653230;212;24932;-70
2022/08/06 10:30:56;;;;;;;;;;;16.80;1.40;;;18.43;100.00;96121.16;655696;216;24802;-70
2022/08/06 10:35:53;;;;;;;4.95;3.78;;;17.00;1.40;;;18.62;100.00;96128.45;646748;216;31661;-70
2022/08/06 10:38:35;;;;;;;4.10;2.92;;;16.90;1.40;;;18.53;100.00;96129.97;645104;212;32345;-70
2022/08/06 10:41:17;;;;;;;5.93;3.20;;;16.80;1.40;;;18.08;100.00;96133.95;644812;212;31598;-69
2022/08/06 10:43:59;;;;;;;6.35;4.07;;;16.70;1.40;;;18.36;100.00;96124.43;646179;212;31563;-70
2022/08/06 10:46:40;;;;;;;5.45;3.53;;;16.80;1.40;;;18.57;100.00;96125.36;647422;216;32121;-70
2022/08/06 10:49:22;;;;;;;6.18;4.45;;;17.00;1.40;;;18.74;100.00;96126.69;620229;226;31987;-70
2022/08/06 10:52:05;;;;;;;4.93;4.28;;;17.00;1.40;;;18.55;100.00;96127.82;647225;212;31551;-70
2022/08/06 10:54:49;;;;;;;4.60;3.43;;;17.00;1.40;;;18.82;100.00;96126.84;644481;212;32087;-70
2022/08/06 10:57:32;;;;;;;4.22;2.90;;;17.20;1.40;;;18.81;100.00;96126.33;648103;216;31609;-69
2022/08/06 11:00:13;;;;;;;5.62;4.90;;;17.20;1.40;;;19.21;100.00;96126.67;648351;216;42756;-69
2022/08/06 11:03:04;;;;;;;3.63;3.13;;;17.40;1.40;;;19.27;100.00;96121.81;645417;216;31585;-69
2022/08/06 11:05:46;;;;;;;5.45;3.92;;;17.60;1.40;;;19.72;100.00;96120.84;650410;212;42244;-70
2022/08/06 11:08:38;;;;;;;3.85;3.30;;;18.10;1.40;;;20.03;100.00;96114.50;648089;216;31682;-70
2022/08/06 11:11:28;;;;;;;4.80;4.10;;;18.50;1.40;;;20.41;100.00;96114.45;646384;212;42235;-70
2022/08/06 11:14:10;;;;;;;5.05;3.62;;;18.80;1.40;;;20.46;100.00;96116.19;648607;216;31643;-70
2022/08/06 11:16:56;;;;;;;6.35;3.35;;;18.70;1.40;;;21.34;100.00;96119.02;645781;216;31588;-69
2022/08/06 11:19:40;;;;;;;6.57;3.95;;;19.00;1.40;;;21.33;100.00;96122.78;651234;216;31562;-69
2022/08/06 11:22:34;;;;;;;5.72;4.32;;;19.20;1.40;;;21.75;100.00;96117.95;644642;212;32087;-69
2022/08/06 11:25:16;;;;;;;4.85;3.83;;;19.50;1.40;;;22.22;100.00;96117.40;646707;212;32048;-70
2022/08/06 11:28:01;;;;;;;4.07;3.67;;;19.70;1.40;;;22.92;100.00;96114.58;626231;226;32059;-70
2022/08/06 11:30:46;;;;;;;6.40;3.70;;;19.90;1.40;;;21.61;100.00;96117.47;649055;215;31756;-70
2022/08/06 11:35:55;;;;;;;4.90;4.15;;;19.10;1.40;;;21.06;100.00;96115.91;619677;226;42531;-70
2022/08/06 11:44:12;;;;;;;6.70;5.50;;;18.50;1.40;;;19.92;100.00;96105.69;649083;216;31637;-70
2022/08/06 11:47:06;;;;;;;7.37;5.40;;;17.90;1.40;;;20.14;100.00;96101.70;645988;216;31688;-70
2022/08/06 11:49:47;;;;;;;7.00;5.03;;;18.00;1.40;;;19.67;100.00;96104.84;646822;212;31600;-70
2022/08/06 11:52:40;;;;;;;6.43;5.70;;;17.90;1.40;;;19.42;100.00;96101.72;648807;216;31681;-69
2022/08/06 11:55:21;;;;;;;6.28;5.30;;;17.80;1.40;;;19.78;100.00;96095.73;646302;216;31590;-70
2022/08/06 11:58:20;;;;;;;6.37;4.70;;;17.80;1.40;;;19.58;100.00;96102.76;645738;212;31662;-69
2022/08/06 12:01:05;;;;;;;9.60;5.85;;;17.80;1.40;;;19.50;100.00;96100.78;646046;216;43080;-69
2022/08/06 12:09:07;;;;;;;5.40;4.50;;;18.80;1.40;;;21.41;100.00;96100.02;646080;212;31612;-69
2022/08/06 12:11:49;;;;;;;6.05;4.90;;;19.40;1.40;;;21.37;100.00;96105.03;652026;212;31631;-70
2022/08/06 12:14:38;;;;;;;5.93;4.65;;;19.30;1.40;;;22.15;100.00;96102.41;643754;216;31611;-70
2022/08/06 12:17:19;;;;;;;5.97;4.70;;;19.70;1.40;;;22.15;100.00;96102.38;654042;216;31617;-69
2022/08/06 12:20:01;;;;;;;6.28;4.70;;;20.00;1.40;;;22.00;100.00;96106.04;647350;216;31554;-69
2022/08/06 12:22:42;;;;;;;8.70;4.70;;;19.90;1.40;;;22.08;100.00;96108.58;648131;216;32257;-70
2022/08/06 12:25:31;;;;;;;5.80;4.70;;;19.70;1.40;;;21.86;100.00;96104.97;651127;216;31544;-69
2022/08/06 12:28:13;;;;;;;6.83;5.30;;;19.40;1.40;;;21.84;100.00;96101.90;646881;212;31763;-70
2022/08/06 12:30:55;;;;;;;5.47;4.72;;;19.30;1.40;;;22.07;100.00;96106.63;644205;216;31535;-69
2022/08/06 12:36:00;;;;;;;5.43;4.17;;;19.30;1.40;;;21.37;100.00;96105.08;649983;216;31566;-69
2022/08/06 12:38:41;;;;;;;5.72;4.30;;;18.80;1.40;;;21.83;100.00;96101.91;647503;216;32576;-69
2022/08/06 12:41:23;;;;;;;5.37;4.73;;;18.90;1.40;;;21.16;100.00;96101.61;644914;216;33604;-70
2022/08/06 12:44:04;;;;;;;6.03;4.60;;;18.80;1.40;;;21.22;100.00;96099.04;648371;216;31548;-69
2022/08/06 12:46:46;;;;;;;5.50;5.00;;;18.90;1.40;;;21.46;100.00;96094.88;647047;216;31689;-70
2022/08/06 12:49:31;;;;;;;5.93;4.95;;;18.80;1.40;;;21.26;100.00;96099.90;645458;212;31670;-70
2022/08/06 12:52:16;;;;;;;4.70;4.20;;;18.90;1.40;;;21.18;100.00;96093.92;647889;212;31746;-70